sensor_id;sensor_type;location;lat;lon;timestamp;pressure;altitude;pressure_sealevel;temperature;humidity
64023;BME280;50264;52.088;5.296;2023-05-20T00:01:26;102490.00000000001;;;13.88;64.92
64023;BME280;50264;52.088;5.296;2023-05-20T00:03:02;102489.00000000001;;;13.86;65.5
64023;BME280;50264;52.088;5.296;2023-05-20T00:04:39;102490.00000000001;;;13.8;64.14
64023;BME280;50264;52.088;5.296;2023-05-20T00:07:51;102486.99999999999;;;13.92;64.19
64023;BME280;50264;52.088;5.296;2023-05-20T00:09:27;102482.0;;;13.86;66.14
64023;BME280;50264;52.088;5.296;2023-05-20T00:11:04;102480.0;;;13.83;65.63
64023;BME280;50264;52.088;5.296;2023-05-20T00:12:40;102484.99999999999;;;13.78;66.02
64023;BME280;50264;52.088;5.296;2023-05-20T00:15:52;102478.0;;;13.78;66.61
64023;BME280;50264;52.088;5.296;2023-05-20T00:17:28;102483.0;;;13.79;66.3
64023;BME280;50264;52.088;5.296;2023-05-20T00:19:05;102480.0;;;13.74;66.45
64023;BME280;50264;52.088;5.296;2023-05-20T00:22:18;102481.0;;;13.74;66.84
64023;BME280;50264;52.088;5.296;2023-05-20T00:23:54;102482.0;;;13.7;66.14
64023;BME280;50264;52.088;5.296;2023-05-20T00:25:30;102486.99999999999;;;13.79;66.35
64023;BME280;50264;52.088;5.296;2023-05-20T00:28:43;102488.00000000001;;;13.77;66.77
64023;BME280;50264;52.088;5.296;2023-05-20T00:30:19;102490.00000000001;;;13.66;67.11
64023;BME280;50264;52.088;5.296;2023-05-20T00:31:55;102486.99999999999;;;13.63;67.55
64023;BME280;50264;52.088;5.296;2023-05-20T00:35:08;102480.0;;;13.49;67.44
64023;BME280;50264;52.088;5.296;2023-05-20T00:36:44;102481.0;;;13.61;67.62
64023;BME280;50264;52.088;5.296;2023-05-20T00:38:20;102480.0;;;13.45;67.3
64023;BME280;50264;52.088;5.296;2023-05-20T00:39:56;102480.0;;;13.49;68.22
64023;BME280;50264;52.088;5.296;2023-05-20T00:43:08;102474.0;;;13.42;68.78
64023;BME280;50264;52.088;5.296;2023-05-20T00:44:44;102480.0;;;13.38;66.67
64023;BME280;50264;52.088;5.296;2023-05-20T00:46:21;102474.0;;;13.44;68.08
64023;BME280;50264;52.088;5.296;2023-05-20T00:49:36;102477.0;;;13.53;66.66
64023;BME280;50264;52.088;5.296;2023-05-20T00:51:13;102475.0;;;13.5;67.8
64023;BME280;50264;52.088;5.296;2023-05-20T00:52:48;102473.0;;;13.52;67.59
64023;BME280;50264;52.088;5.296;2023-05-20T00:56:01;102470.0;;;13.58;67.47
64023;BME280;50264;52.088;5.296;2023-05-20T00:57:38;102474.0;;;13.57;68.08
64023;BME280;50264;52.088;5.296;2023-05-20T00:59:15;102470.0;;;13.51;68.56
64023;BME280;50264;52.088;5.296;2023-05-20T01:00:50;102468.0;;;13.45;67.63
64023;BME280;50264;52.088;5.296;2023-05-20T01:04:04;102465.00000000001;;;13.51;67.77
64023;BME280;50264;52.088;5.296;2023-05-20T01:05:40;102468.0;;;13.45;68.41
64023;BME280;50264;52.088;5.296;2023-05-20T01:07:16;102467.0;;;13.39;69.33
64023;BME280;50264;52.088;5.296;2023-05-20T01:10:30;102463.00000000001;;;13.45;69.22
64023;BME280;50264;52.088;5.296;2023-05-20T01:12:12;102463.00000000001;;;13.38;69.52
64023;BME280;50264;52.088;5.296;2023-05-20T01:13:54;102458.99999999999;;;13.34;69.41
64023;BME280;50264;52.088;5.296;2023-05-20T01:15:32;102458.99999999999;;;13.35;69.25
64023;BME280;50264;52.088;5.296;2023-05-20T01:18:48;102452.0;;;13.28;69.8
64023;BME280;50264;52.088;5.296;2023-05-20T01:20:27;102450.0;;;13.27;69.41
64023;BME280;50264;52.088;5.296;2023-05-20T01:22:06;102451.0;;;13.21;69.94
64023;BME280;50264;52.088;5.296;2023-05-20T01:25:20;102451.0;;;13.21;70.11
64023;BME280;50264;52.088;5.296;2023-05-20T01:26:56;102450.0;;;13.19;69.73
64023;BME280;50264;52.088;5.296;2023-05-20T01:28:33;102448.0;;;13.21;69.58
64023;BME280;50264;52.088;5.296;2023-05-20T01:30:11;102442.0;;;13.21;69.08
64023;BME280;50264;52.088;5.296;2023-05-20T01:33:24;102444.0;;;13.18;70.19
64023;BME280;50264;52.088;5.296;2023-05-20T01:35:05;102442.0;;;13.07;69.99
64023;BME280;50264;52.088;5.296;2023-05-20T01:36:44;102440.00000000001;;;13.15;70.55
64023;BME280;50264;52.088;5.296;2023-05-20T01:39:59;102432.0;;;13.04;70.39
64023;BME280;50264;52.088;5.296;2023-05-20T01:41:36;102433.0;;;13.08;70.38
64023;BME280;50264;52.088;5.296;2023-05-20T01:43:12;102429.0;;;13.12;70.39
64023;BME280;50264;52.088;5.296;2023-05-20T01:44:50;102426.0;;;13.08;71.3
64023;BME280;50264;52.088;5.296;2023-05-20T01:48:02;102427.0;;;13.06;70.99
64023;BME280;50264;52.088;5.296;2023-05-20T01:49:38;102427.0;;;13.0;70.02
64023;BME280;50264;52.088;5.296;2023-05-20T01:51:14;102429.0;;;12.93;70.13
64023;BME280;50264;52.088;5.296;2023-05-20T01:54:27;102426.0;;;12.96;70.94
64023;BME280;50264;52.088;5.296;2023-05-20T01:56:04;102434.99999999999;;;12.83;71.2
64023;BME280;50264;52.088;5.296;2023-05-20T01:57:40;102429.0;;;12.84;71.19
64023;BME280;50264;52.088;5.296;2023-05-20T02:00:52;102431.0;;;12.74;72.08
64023;BME280;50264;52.088;5.296;2023-05-20T02:02:29;102433.0;;;12.69;72.47
64023;BME280;50264;52.088;5.296;2023-05-20T02:04:05;102430.0;;;12.6;71.8
64023;BME280;50264;52.088;5.296;2023-05-20T02:05:41;102426.0;;;12.65;72.3
64023;BME280;50264;52.088;5.296;2023-05-20T02:08:54;102425.0;;;12.62;72.94
64023;BME280;50264;52.088;5.296;2023-05-20T02:10:30;102422.0;;;12.57;72.83
64023;BME280;50264;52.088;5.296;2023-05-20T02:12:07;102423.0;;;12.55;72.49
64023;BME280;50264;52.088;5.296;2023-05-20T02:15:20;102427.0;;;12.48;73.11
64023;BME280;50264;52.088;5.296;2023-05-20T02:16:56;102425.0;;;12.49;72.99
64023;BME280;50264;52.088;5.296;2023-05-20T02:18:32;102426.0;;;12.46;73.69
64023;BME280;50264;52.088;5.296;2023-05-20T02:21:46;102427.0;;;12.45;73.34
64023;BME280;50264;52.088;5.296;2023-05-20T02:23:22;102427.0;;;12.51;73.09
64023;BME280;50264;52.088;5.296;2023-05-20T02:24:58;102433.99999999999;;;12.46;72.86
64023;BME280;50264;52.088;5.296;2023-05-20T02:26:34;102432.0;;;12.45;73.34
64023;BME280;50264;52.088;5.296;2023-05-20T02:29:47;102429.0;;;12.36;73.75
64023;BME280;50264;52.088;5.296;2023-05-20T02:31:23;102429.0;;;12.34;73.83
64023;BME280;50264;52.088;5.296;2023-05-20T02:32:59;102426.0;;;12.31;73.5
64023;BME280;50264;52.088;5.296;2023-05-20T02:37:48;102424.0;;;12.24;74.08
64023;BME280;50264;52.088;5.296;2023-05-20T02:39:24;102423.0;;;12.25;74.22
64023;BME280;50264;52.088;5.296;2023-05-20T02:42:36;102416.00000000001;;;12.24;74.33
64023;BME280;50264;52.088;5.296;2023-05-20T02:44:12;102419.0;;;12.19;74.19
64023;BME280;50264;52.088;5.296;2023-05-20T02:45:49;102414.00000000001;;;12.15;74.66
64023;BME280;50264;52.088;5.296;2023-05-20T02:49:02;102415.00000000001;;;12.18;74.49
64023;BME280;50264;52.088;5.296;2023-05-20T02:50:38;102416.00000000001;;;12.27;74.38
64023;BME280;50264;52.088;5.296;2023-05-20T02:52:14;102407.0;;;12.2;74.67
64023;BME280;50264;52.088;5.296;2023-05-20T02:53:51;102408.0;;;12.19;74.58
64023;BME280;50264;52.088;5.296;2023-05-20T02:57:03;102408.99999999999;;;12.16;74.61
64023;BME280;50264;52.088;5.296;2023-05-20T02:58:39;102407.0;;;12.09;74.58
64023;BME280;50264;52.088;5.296;2023-05-20T03:00:15;102408.99999999999;;;12.09;74.64
64023;BME280;50264;52.088;5.296;2023-05-20T03:03:28;102409.99999999999;;;12.08;74.48
64023;BME280;50264;52.088;5.296;2023-05-20T03:05:04;102408.99999999999;;;12.1;74.63
64023;BME280;50264;52.088;5.296;2023-05-20T03:06:41;102413.00000000001;;;12.13;74.95
64023;BME280;50264;52.088;5.296;2023-05-20T03:09:55;102413.00000000001;;;12.01;74.58
64023;BME280;50264;52.088;5.296;2023-05-20T03:11:32;102414.00000000001;;;11.95;75.97
64023;BME280;50264;52.088;5.296;2023-05-20T03:13:08;102416.00000000001;;;11.89;75.77
64023;BME280;50264;52.088;5.296;2023-05-20T03:14:44;102418.0;;;11.88;75.39
64023;BME280;50264;52.088;5.296;2023-05-20T03:17:57;102420.0;;;11.92;75.52
64023;BME280;50264;52.088;5.296;2023-05-20T03:19:33;102415.00000000001;;;11.95;75.55
64023;BME280;50264;52.088;5.296;2023-05-20T03:21:10;102418.0;;;11.84;75.88
64023;BME280;50264;52.088;5.296;2023-05-20T03:24:22;102419.0;;;11.89;76.17
64023;BME280;50264;52.088;5.296;2023-05-20T03:25:58;102416.00000000001;;;11.91;76.37
64023;BME280;50264;52.088;5.296;2023-05-20T03:27:34;102418.0;;;11.84;76.33
64023;BME280;50264;52.088;5.296;2023-05-20T03:30:47;102420.0;;;11.76;76.49
64023;BME280;50264;52.088;5.296;2023-05-20T03:32:23;102417.0;;;11.76;76.72
64023;BME280;50264;52.088;5.296;2023-05-20T03:33:59;102417.0;;;11.71;76.69
64023;BME280;50264;52.088;5.296;2023-05-20T03:35:35;102419.0;;;11.71;77.08
64023;BME280;50264;52.088;5.296;2023-05-20T03:38:48;102415.00000000001;;;11.72;77.08
64023;BME280;50264;52.088;5.296;2023-05-20T03:40:24;102415.00000000001;;;11.66;77.37
64023;BME280;50264;52.088;5.296;2023-05-20T03:42:00;102411.99999999999;;;11.69;76.94
64023;BME280;50264;52.088;5.296;2023-05-20T03:45:13;102411.99999999999;;;11.69;77.3
64023;BME280;50264;52.088;5.296;2023-05-20T03:46:49;102417.0;;;11.62;77.53
64023;BME280;50264;52.088;5.296;2023-05-20T03:48:25;102415.00000000001;;;11.59;77.41
64023;BME280;50264;52.088;5.296;2023-05-20T03:51:37;102416.00000000001;;;11.65;77.41
64023;BME280;50264;52.088;5.296;2023-05-20T03:53:13;102416.00000000001;;;11.59;77.52
64023;BME280;50264;52.088;5.296;2023-05-20T03:54:50;102415.00000000001;;;11.53;77.91
64023;BME280;50264;52.088;5.296;2023-05-20T03:58:02;102418.0;;;11.54;78.09
64023;BME280;50264;52.088;5.296;2023-05-20T03:59:38;102417.0;;;11.43;78.23
64023;BME280;50264;52.088;5.296;2023-05-20T04:01:14;102413.00000000001;;;11.43;78.55
64023;BME280;50264;52.088;5.296;2023-05-20T04:02:51;102417.0;;;11.39;78.47
64023;BME280;50264;52.088;5.296;2023-05-20T04:06:03;102414.00000000001;;;11.41;78.64
64023;BME280;50264;52.088;5.296;2023-05-20T04:07:39;102417.0;;;11.48;78.66
64023;BME280;50264;52.088;5.296;2023-05-20T04:09:15;102413.00000000001;;;11.44;78.69
64023;BME280;50264;52.088;5.296;2023-05-20T04:12:31;102411.99999999999;;;11.53;78.92
64023;BME280;50264;52.088;5.296;2023-05-20T04:14:08;102415.00000000001;;;11.59;78.67
64023;BME280;50264;52.088;5.296;2023-05-20T04:15:43;102409.99999999999;;;11.73;78.73
64023;BME280;50264;52.088;5.296;2023-05-20T04:18:56;102408.99999999999;;;11.74;78.34
64023;BME280;50264;52.088;5.296;2023-05-20T04:20:32;102411.99999999999;;;11.78;78.36
64023;BME280;50264;52.088;5.296;2023-05-20T04:22:08;102411.99999999999;;;11.76;78.05
64023;BME280;50264;52.088;5.296;2023-05-20T04:23:44;102414.00000000001;;;11.77;78.52
64023;BME280;50264;52.088;5.296;2023-05-20T04:26:57;102411.99999999999;;;11.81;78.92
64023;BME280;50264;52.088;5.296;2023-05-20T04:28:33;102415.00000000001;;;11.9;77.95
64023;BME280;50264;52.088;5.296;2023-05-20T04:30:10;102417.0;;;11.92;78.19
64023;BME280;50264;52.088;5.296;2023-05-20T04:34:59;102411.99999999999;;;12.07;78.7
64023;BME280;50264;52.088;5.296;2023-05-20T04:36:35;102411.99999999999;;;12.18;78.55
64023;BME280;50264;52.088;5.296;2023-05-20T04:39:47;102415.00000000001;;;12.4;77.31
64023;BME280;50264;52.088;5.296;2023-05-20T04:41:23;102417.0;;;12.39;77.62
64023;BME280;50264;52.088;5.296;2023-05-20T04:42:59;102419.0;;;12.43;77.33
64023;BME280;50264;52.088;5.296;2023-05-20T04:46:12;102420.0;;;12.46;77.2
64023;BME280;50264;52.088;5.296;2023-05-20T04:47:48;102421.0;;;12.46;77.16
64023;BME280;50264;52.088;5.296;2023-05-20T04:49:24;102423.0;;;12.56;77.28
64023;BME280;50264;52.088;5.296;2023-05-20T04:51:00;102423.0;;;12.6;76.58
64023;BME280;50264;52.088;5.296;2023-05-20T04:54:15;102427.0;;;12.61;76.44
64023;BME280;50264;52.088;5.296;2023-05-20T04:55:53;102423.0;;;12.73;75.33
64023;BME280;50264;52.088;5.296;2023-05-20T04:57:29;102420.0;;;12.69;76.66
64023;BME280;50264;52.088;5.296;2023-05-20T05:00:41;102417.0;;;12.7;75.44
64023;BME280;50264;52.088;5.296;2023-05-20T05:02:19;102414.00000000001;;;12.67;76.52
64023;BME280;50264;52.088;5.296;2023-05-20T05:03:55;102420.0;;;12.69;75.16
64023;BME280;50264;52.088;5.296;2023-05-20T05:05:31;102417.0;;;12.79;75.7
64023;BME280;50264;52.088;5.296;2023-05-20T05:08:43;102417.0;;;12.8;75.89
64023;BME280;50264;52.088;5.296;2023-05-20T05:10:20;102420.0;;;12.74;75.52
64023;BME280;50264;52.088;5.296;2023-05-20T05:11:56;102418.0;;;12.79;75.36
64023;BME280;50264;52.088;5.296;2023-05-20T05:15:09;102411.99999999999;;;12.88;75.8
64023;BME280;50264;52.088;5.296;2023-05-20T05:16:45;102419.0;;;12.97;74.77
64023;BME280;50264;52.088;5.296;2023-05-20T05:18:21;102413.00000000001;;;12.95;75.05
64023;BME280;50264;52.088;5.296;2023-05-20T05:21:34;102419.0;;;13.03;74.77
64023;BME280;50264;52.088;5.296;2023-05-20T05:23:10;102414.00000000001;;;13.1;74.06
64023;BME280;50264;52.088;5.296;2023-05-20T05:24:46;102422.0;;;13.11;74.83
64023;BME280;50264;52.088;5.296;2023-05-20T05:27:59;102414.00000000001;;;13.18;73.8
64023;BME280;50264;52.088;5.296;2023-05-20T05:29:35;102408.99999999999;;;13.29;73.64
64023;BME280;50264;52.088;5.296;2023-05-20T05:31:11;102408.99999999999;;;13.28;73.61
64023;BME280;50264;52.088;5.296;2023-05-20T05:32:47;102401.0;;;13.21;73.84
64023;BME280;50264;52.088;5.296;2023-05-20T05:36:00;102398.0;;;13.24;73.88
64023;BME280;50264;52.088;5.296;2023-05-20T05:37:36;102400.0;;;13.32;73.97
64023;BME280;50264;52.088;5.296;2023-05-20T05:39:12;102396.0;;;13.3;74.59
64023;BME280;50264;52.088;5.296;2023-05-20T05:42:24;102397.0;;;13.33;73.61
64023;BME280;50264;52.088;5.296;2023-05-20T05:44:00;102396.0;;;13.49;72.41
64023;BME280;50264;52.088;5.296;2023-05-20T05:45:37;102400.0;;;13.57;72.81
64023;BME280;50264;52.088;5.296;2023-05-20T05:48:50;102402.0;;;13.62;71.97
64023;BME280;50264;52.088;5.296;2023-05-20T05:50:26;102404.0;;;13.63;71.42
64023;BME280;50264;52.088;5.296;2023-05-20T05:52:03;102397.0;;;13.73;72.33
64023;BME280;50264;52.088;5.296;2023-05-20T05:53:39;102403.0;;;13.76;71.69
64023;BME280;50264;52.088;5.296;2023-05-20T05:56:51;102396.0;;;13.77;71.44
64023;BME280;50264;52.088;5.296;2023-05-20T05:58:28;102396.0;;;13.87;71.62
64023;BME280;50264;52.088;5.296;2023-05-20T06:00:07;102400.0;;;13.76;71.12
64023;BME280;50264;52.088;5.296;2023-05-20T06:03:19;102396.0;;;13.87;70.83
64023;BME280;50264;52.088;5.296;2023-05-20T06:04:55;102395.0;;;13.93;70.91
64023;BME280;50264;52.088;5.296;2023-05-20T06:06:32;102388.0;;;14.02;70.92
64023;BME280;50264;52.088;5.296;2023-05-20T06:09:45;102394.0;;;14.08;70.69
64023;BME280;50264;52.088;5.296;2023-05-20T06:11:21;102396.0;;;14.05;69.03
64023;BME280;50264;52.088;5.296;2023-05-20T06:12:57;102388.0;;;14.11;69.52
64023;BME280;50264;52.088;5.296;2023-05-20T06:14:33;102396.0;;;14.23;69.36
64023;BME280;50264;52.088;5.296;2023-05-20T06:17:45;102390.0;;;14.23;69.52
64023;BME280;50264;52.088;5.296;2023-05-20T06:19:22;102393.0;;;14.31;69.73
64023;BME280;50264;52.088;5.296;2023-05-20T06:20:58;102391.0;;;14.46;68.83
64023;BME280;50264;52.088;5.296;2023-05-20T06:24:11;102385.0;;;14.39;69.27
64023;BME280;50264;52.088;5.296;2023-05-20T06:25:48;102390.0;;;14.41;69.72
64023;BME280;50264;52.088;5.296;2023-05-20T06:27:25;102392.0;;;14.5;69.53
64023;BME280;50264;52.088;5.296;2023-05-20T06:30:37;102389.0;;;14.72;68.2
64023;BME280;50264;52.088;5.296;2023-05-20T06:32:13;102386.0;;;14.73;67.3
64023;BME280;50264;52.088;5.296;2023-05-20T06:33:49;102392.0;;;14.82;67.27
64023;BME280;50264;52.088;5.296;2023-05-20T06:37:02;102386.0;;;14.74;67.17
64023;BME280;50264;52.088;5.296;2023-05-20T06:38:38;102385.0;;;14.8;68.31
64023;BME280;50264;52.088;5.296;2023-05-20T06:40:14;102389.0;;;14.93;67.13
64023;BME280;50264;52.088;5.296;2023-05-20T06:41:50;102384.0;;;15.03;66.81
64023;BME280;50264;52.088;5.296;2023-05-20T06:45:04;102388.0;;;15.05;68.74
64023;BME280;50264;52.088;5.296;2023-05-20T06:46:41;102384.0;;;15.15;67.24
64023;BME280;50264;52.088;5.296;2023-05-20T06:48:17;102383.0;;;15.2;66.19
64023;BME280;50264;52.088;5.296;2023-05-20T06:51:29;102378.0;;;15.41;66.42
64023;BME280;50264;52.088;5.296;2023-05-20T06:53:05;102380.0;;;15.34;65.44
64023;BME280;50264;52.088;5.296;2023-05-20T06:54:41;102377.0;;;15.46;65.83
64023;BME280;50264;52.088;5.296;2023-05-20T06:57:54;102375.0;;;15.52;65.06
64023;BME280;50264;52.088;5.296;2023-05-20T06:59:30;102372.0;;;15.6;65.14
64023;BME280;50264;52.088;5.296;2023-05-20T07:01:06;102366.0;;;15.59;64.16
64023;BME280;50264;52.088;5.296;2023-05-20T07:02:42;102366.0;;;15.59;65.73
64023;BME280;50264;52.088;5.296;2023-05-20T07:05:55;102356.0;;;15.66;64.38
64023;BME280;50264;52.088;5.296;2023-05-20T07:07:31;102363.0;;;15.75;66.7
64023;BME280;50264;52.088;5.296;2023-05-20T07:09:07;102361.0;;;15.88;64.19
64023;BME280;50264;52.088;5.296;2023-05-20T07:12:20;102360.0;;;15.93;63.95
64023;BME280;50264;52.088;5.296;2023-05-20T07:13:56;102356.0;;;16.02;64.75
64023;BME280;50264;52.088;5.296;2023-05-20T07:15:33;102353.0;;;16.13;62.45
64023;BME280;50264;52.088;5.296;2023-05-20T07:18:46;102353.0;;;16.2;62.78
64023;BME280;50264;52.088;5.296;2023-05-20T07:20:22;102359.0;;;16.34;62.21
64023;BME280;50264;52.088;5.296;2023-05-20T07:21:59;102355.0;;;16.47;61.42
64023;BME280;50264;52.088;5.296;2023-05-20T07:25:11;102350.0;;;16.5;62.23
64023;BME280;50264;52.088;5.296;2023-05-20T07:26:47;102350.0;;;16.61;59.97
64023;BME280;50264;52.088;5.296;2023-05-20T07:28:23;102351.0;;;16.68;61.76
64023;BME280;50264;52.088;5.296;2023-05-20T07:29:59;102348.0;;;16.65;60.36
64023;BME280;50264;52.088;5.296;2023-05-20T07:33:12;102349.0;;;16.7;60.88
64023;BME280;50264;52.088;5.296;2023-05-20T07:34:48;102347.0;;;16.8;59.05
64023;BME280;50264;52.088;5.296;2023-05-20T07:36:25;102338.0;;;16.93;59.55
64023;BME280;50264;52.088;5.296;2023-05-20T07:39:37;102343.0;;;17.02;58.77
64023;BME280;50264;52.088;5.296;2023-05-20T07:41:14;102337.0;;;17.02;58.56
64023;BME280;50264;52.088;5.296;2023-05-20T07:42:50;102341.0;;;17.21;57.66
64023;BME280;50264;52.088;5.296;2023-05-20T07:46:02;102338.0;;;17.31;59.08
64023;BME280;50264;52.088;5.296;2023-05-20T07:47:39;102328.0;;;17.28;57.76
64023;BME280;50264;52.088;5.296;2023-05-20T07:49:15;102332.0;;;17.43;57.78
64023;BME280;50264;52.088;5.296;2023-05-20T07:50:52;102328.0;;;17.45;56.99
64023;BME280;50264;52.088;5.296;2023-05-20T07:54:04;102322.0;;;17.47;55.14
64023;BME280;50264;52.088;5.296;2023-05-20T07:55:41;102321.0;;;17.64;55.86
64023;BME280;50264;52.088;5.296;2023-05-20T07:57:17;102314.0;;;17.66;57.25
64023;BME280;50264;52.088;5.296;2023-05-20T08:00:32;102326.0;;;17.68;53.94
64023;BME280;50264;52.088;5.296;2023-05-20T08:02:08;102317.0;;;17.71;52.54
64023;BME280;50264;52.088;5.296;2023-05-20T08:03:44;102309.0;;;17.86;53.69
64023;BME280;50264;52.088;5.296;2023-05-20T08:06:56;102309.0;;;17.88;53.6
64023;BME280;50264;52.088;5.296;2023-05-20T08:08:33;102305.0;;;17.87;52.6
64023;BME280;50264;52.088;5.296;2023-05-20T08:10:09;102312.0;;;17.97;52.39
64023;BME280;50264;52.088;5.296;2023-05-20T08:11:46;102301.0;;;18.0;53.83
64023;BME280;50264;52.088;5.296;2023-05-20T08:15:00;102305.0;;;18.06;52.12
64023;BME280;50264;52.088;5.296;2023-05-20T08:16:36;102299.0;;;18.14;52.5
64023;BME280;50264;52.088;5.296;2023-05-20T08:18:13;102310.0;;;18.13;49.98
64023;BME280;50264;52.088;5.296;2023-05-20T08:21:25;102309.0;;;18.27;51.09
64023;BME280;50264;52.088;5.296;2023-05-20T08:23:01;102307.0;;;18.41;49.72
64023;BME280;50264;52.088;5.296;2023-05-20T08:24:37;102313.0;;;18.39;50.21
64023;BME280;50264;52.088;5.296;2023-05-20T08:27:50;102303.0;;;18.52;49.65
64023;BME280;50264;52.088;5.296;2023-05-20T08:29:26;102301.0;;;18.63;50.72
64023;BME280;50264;52.088;5.296;2023-05-20T08:31:02;102301.0;;;18.79;50.59
64023;BME280;50264;52.088;5.296;2023-05-20T08:32:38;102297.0;;;18.84;49.79
64023;BME280;50264;52.088;5.296;2023-05-20T08:35:50;102296.0;;;18.91;50.17
64023;BME280;50264;52.088;5.296;2023-05-20T08:37:27;102301.0;;;18.97;50.11
64023;BME280;50264;52.088;5.296;2023-05-20T08:39:03;102296.0;;;19.07;48.95
64023;BME280;50264;52.088;5.296;2023-05-20T08:42:20;102296.0;;;19.06;48.04
64023;BME280;50264;52.088;5.296;2023-05-20T08:43:58;102286.0;;;19.09;47.47
64023;BME280;50264;52.088;5.296;2023-05-20T08:45:37;102285.0;;;19.27;47.82
64023;BME280;50264;52.088;5.296;2023-05-20T08:48:49;102283.0;;;19.27;46.39
64023;BME280;50264;52.088;5.296;2023-05-20T08:50:25;102271.0;;;19.25;44.2
64023;BME280;50264;52.088;5.296;2023-05-20T08:52:03;102281.0;;;19.36;44.89
64023;BME280;50264;52.088;5.296;2023-05-20T08:53:39;102277.0;;;19.43;44.47
64023;BME280;50264;52.088;5.296;2023-05-20T08:57:01;102272.0;;;19.27;43.52
64023;BME280;50264;52.088;5.296;2023-05-20T08:58:37;102269.0;;;19.34;43.5
64023;BME280;50264;52.088;5.296;2023-05-20T09:00:14;102262.0;;;19.5;44.01
64023;BME280;50264;52.088;5.296;2023-05-20T09:03:27;102263.0;;;19.54;42.88
64023;BME280;50264;52.088;5.296;2023-05-20T09:05:03;102264.0;;;19.66;43.67
64023;BME280;50264;52.088;5.296;2023-05-20T09:06:42;102265.0;;;19.63;42.71
64023;BME280;50264;52.088;5.296;2023-05-20T09:08:19;102268.0;;;19.91;44.6
64023;BME280;50264;52.088;5.296;2023-05-20T09:11:36;102266.0;;;20.04;44.83
64023;BME280;50264;52.088;5.296;2023-05-20T09:13:12;102271.0;;;20.11;44.18
64023;BME280;50264;52.088;5.296;2023-05-20T09:14:48;102270.0;;;20.2;43.5
64023;BME280;50264;52.088;5.296;2023-05-20T09:18:01;102268.0;;;20.03;41.84
64023;BME280;50264;52.088;5.296;2023-05-20T09:19:37;102263.0;;;20.18;41.92
64023;BME280;50264;52.088;5.296;2023-05-20T09:21:14;102264.0;;;20.22;42.65
64023;BME280;50264;52.088;5.296;2023-05-20T09:22:51;102273.0;;;20.37;42.03
64023;BME280;50264;52.088;5.296;2023-05-20T09:26:03;102269.0;;;20.36;40.89
64023;BME280;50264;52.088;5.296;2023-05-20T09:27:39;102263.0;;;20.27;41.9
64023;BME280;50264;52.088;5.296;2023-05-20T09:29:16;102265.0;;;20.39;41.23
64023;BME280;50264;52.088;5.296;2023-05-20T09:32:33;102250.0;;;20.37;40.29
64023;BME280;50264;52.088;5.296;2023-05-20T09:34:09;102250.0;;;20.39;40.11
64023;BME280;50264;52.088;5.296;2023-05-20T09:35:48;102245.0;;;20.47;40.79
64023;BME280;50264;52.088;5.296;2023-05-20T09:39:03;102245.0;;;20.67;41.5
64023;BME280;50264;52.088;5.296;2023-05-20T09:40:41;102235.0;;;20.94;42.04
64023;BME280;50264;52.088;5.296;2023-05-20T09:42:21;102245.0;;;20.92;39.49
64023;BME280;50264;52.088;5.296;2023-05-20T09:43:58;102232.0;;;20.98;39.26
64023;BME280;50264;52.088;5.296;2023-05-20T09:47:13;102239.0;;;21.12;40.56
64023;BME280;50264;52.088;5.296;2023-05-20T09:48:51;102238.0;;;21.01;39.37
64023;BME280;50264;52.088;5.296;2023-05-20T09:50:27;102241.0;;;20.99;38.96
64023;BME280;50264;52.088;5.296;2023-05-20T09:53:42;102230.0;;;21.13;37.64
64023;BME280;50264;52.088;5.296;2023-05-20T09:55:20;102231.0;;;21.3;40.14
64023;BME280;50264;52.088;5.296;2023-05-20T09:57:01;102230.0;;;21.22;37.06
64023;BME280;50264;52.088;5.296;2023-05-20T09:58:39;102235.0;;;21.34;37.35
64023;BME280;50264;52.088;5.296;2023-05-20T10:01:52;102227.0;;;21.44;37.01
64023;BME280;50264;52.088;5.296;2023-05-20T10:03:28;102237.0;;;21.6;38.12
64023;BME280;50264;52.088;5.296;2023-05-20T10:05:09;102236.0;;;21.55;37.31
64023;BME280;50264;52.088;5.296;2023-05-20T10:07:05;102225.0;;;21.74;38.21
64023;BME280;50264;52.088;5.296;2023-05-20T10:09:06;102224.0;;;21.62;37.21
64023;BME280;50264;52.088;5.296;2023-05-20T10:12:34;102216.0;;;21.63;37.99
64023;BME280;50264;52.088;5.296;2023-05-20T10:14:37;102224.0;;;21.75;38.28
64023;BME280;50264;52.088;5.296;2023-05-20T10:16:22;102208.0;;;21.79;37.53
64023;BME280;50264;52.088;5.296;2023-05-20T10:18:10;102212.0;;;22.01;38.49
64023;BME280;50264;52.088;5.296;2023-05-20T10:19:56;102209.0;;;21.94;37.03
64023;BME280;50264;52.088;5.296;2023-05-20T10:21:33;102205.0;;;22.17;38.14
64023;BME280;50264;52.088;5.296;2023-05-20T10:24:58;102209.0;;;22.38;37.32
64023;BME280;50264;52.088;5.296;2023-05-20T10:26:35;102208.0;;;22.21;37.31
64023;BME280;50264;52.088;5.296;2023-05-20T10:28:12;102207.0;;;22.2;36.56
64023;BME280;50264;52.088;5.296;2023-05-20T10:29:50;102210.0;;;22.21;35.65
64023;BME280;50264;52.088;5.296;2023-05-20T10:33:04;102198.0;;;22.19;38.1
64023;BME280;50264;52.088;5.296;2023-05-20T10:34:45;102191.0;;;22.25;36.93
64023;BME280;50264;52.088;5.296;2023-05-20T10:36:25;102202.0;;;22.42;37.17
64023;BME280;50264;52.088;5.296;2023-05-20T10:39:44;102189.0;;;22.47;37.83
64023;BME280;50264;52.088;5.296;2023-05-20T10:41:23;102188.0;;;22.36;36.1
64023;BME280;50264;52.088;5.296;2023-05-20T10:43:07;102181.0;;;22.28;36.29
64023;BME280;50264;52.088;5.296;2023-05-20T10:44:45;102173.0;;;22.39;38.24
64023;BME280;50264;52.088;5.296;2023-05-20T10:47:58;102180.0;;;22.78;38.94
64023;BME280;50264;52.088;5.296;2023-05-20T10:49:35;102181.0;;;22.82;37.43
64023;BME280;50264;52.088;5.296;2023-05-20T10:51:14;102182.0;;;22.76;35.08
64023;BME280;50264;52.088;5.296;2023-05-20T10:52:50;102187.0;;;22.65;36.06